sensor_id;sensor_type;location;lat;lon;timestamp;P1;durP1;ratioP1;P2;durP2;ratioP2
78489;SDS011;67776;52.012;4.736;2023-07-28T00:01:01;15.33;;;5.80;;
78489;SDS011;67776;52.012;4.736;2023-07-28T00:03:27;16.03;;;6.20;;
78489;SDS011;67776;52.012;4.736;2023-07-28T00:05:52;16.70;;;6.17;;
78489;SDS011;67776;52.012;4.736;2023-07-28T00:08:17;14.60;;;6.03;;
78489;SDS011;67776;52.012;4.736;2023-07-28T00:10:43;13.67;;;6.20;;
78489;SDS011;67776;52.012;4.736;2023-07-28T00:13:08;16.13;;;6.77;;
78489;SDS011;67776;52.012;4.736;2023-07-28T00:15:34;14.63;;;6.85;;
78489;SDS011;67776;52.012;4.736;2023-07-28T00:17:59;18.67;;;7.83;;
78489;SDS011;67776;52.012;4.736;2023-07-28T00:20:26;16.30;;;7.70;;
78489;SDS011;67776;52.012;4.736;2023-07-28T00:22:52;17.05;;;7.82;;
78489;SDS011;67776;52.012;4.736;2023-07-28T00:25:18;18.33;;;7.97;;
78489;SDS011;67776;52.012;4.736;2023-07-28T00:27:43;15.03;;;8.03;;
78489;SDS011;67776;52.012;4.736;2023-07-28T00:30:09;18.57;;;8.00;;
78489;SDS011;67776;52.012;4.736;2023-07-28T00:32:35;19.15;;;7.93;;
78489;SDS011;67776;52.012;4.736;2023-07-28T00:35:01;21.13;;;7.80;;
78489;SDS011;67776;52.012;4.736;2023-07-28T00:37:26;22.17;;;8.32;;
78489;SDS011;67776;52.012;4.736;2023-07-28T00:39:52;20.73;;;8.23;;
78489;SDS011;67776;52.012;4.736;2023-07-28T00:42:17;21.43;;;8.20;;
78489;SDS011;67776;52.012;4.736;2023-07-28T00:44:42;17.80;;;7.50;;
78489;SDS011;67776;52.012;4.736;2023-07-28T00:47:08;18.13;;;8.30;;
78489;SDS011;67776;52.012;4.736;2023-07-28T00:49:33;17.20;;;7.78;;
78489;SDS011;67776;52.012;4.736;2023-07-28T00:51:59;22.10;;;8.13;;
78489;SDS011;67776;52.012;4.736;2023-07-28T00:54:24;20.50;;;9.20;;
78489;SDS011;67776;52.012;4.736;2023-07-28T00:56:50;21.23;;;8.98;;
78489;SDS011;67776;52.012;4.736;2023-07-28T00:59:16;21.10;;;8.70;;
78489;SDS011;67776;52.012;4.736;2023-07-28T01:01:41;18.87;;;8.57;;
78489;SDS011;67776;52.012;4.736;2023-07-28T01:04:07;22.70;;;8.93;;
78489;SDS011;67776;52.012;4.736;2023-07-28T01:06:37;22.13;;;9.40;;
78489;SDS011;67776;52.012;4.736;2023-07-28T01:09:21;21.90;;;9.20;;
78489;SDS011;67776;52.012;4.736;2023-07-28T01:11:52;21.73;;;8.55;;
78489;SDS011;67776;52.012;4.736;2023-07-28T01:14:21;19.63;;;8.45;;
78489;SDS011;67776;52.012;4.736;2023-07-28T01:16:47;24.70;;;8.63;;
78489;SDS011;67776;52.012;4.736;2023-07-28T01:19:12;18.93;;;8.27;;
78489;SDS011;67776;52.012;4.736;2023-07-28T01:21:41;18.08;;;8.18;;
78489;SDS011;67776;52.012;4.736;2023-07-28T01:26:40;19.73;;;8.57;;
78489;SDS011;67776;52.012;4.736;2023-07-28T01:29:06;20.00;;;7.57;;
78489;SDS011;67776;52.012;4.736;2023-07-28T01:31:32;17.90;;;8.02;;
78489;SDS011;67776;52.012;4.736;2023-07-28T01:33:57;19.63;;;8.70;;
78489;SDS011;67776;52.012;4.736;2023-07-28T01:36:23;22.40;;;8.60;;
78489;SDS011;67776;52.012;4.736;2023-07-28T01:38:48;16.80;;;8.40;;
78489;SDS011;67776;52.012;4.736;2023-07-28T01:41:14;24.43;;;8.37;;
78489;SDS011;67776;52.012;4.736;2023-07-28T01:43:39;19.67;;;8.48;;
78489;SDS011;67776;52.012;4.736;2023-07-28T01:46:06;18.23;;;8.20;;
78489;SDS011;67776;52.012;4.736;2023-07-28T01:48:32;17.27;;;8.40;;
78489;SDS011;67776;52.012;4.736;2023-07-28T01:50:57;19.90;;;8.73;;
78489;SDS011;67776;52.012;4.736;2023-07-28T01:53:22;24.17;;;8.90;;
78489;SDS011;67776;52.012;4.736;2023-07-28T01:55:48;17.87;;;8.50;;
78489;SDS011;67776;52.012;4.736;2023-07-28T01:58:13;22.67;;;9.50;;
78489;SDS011;67776;52.012;4.736;2023-07-28T02:00:38;21.43;;;9.27;;
78489;SDS011;67776;52.012;4.736;2023-07-28T02:03:04;22.00;;;8.77;;
78489;SDS011;67776;52.012;4.736;2023-07-28T02:05:29;20.38;;;8.63;;
78489;SDS011;67776;52.012;4.736;2023-07-28T02:07:55;19.90;;;8.90;;
78489;SDS011;67776;52.012;4.736;2023-07-28T02:10:22;21.17;;;8.32;;
78489;SDS011;67776;52.012;4.736;2023-07-28T02:12:48;22.95;;;10.38;;
78489;SDS011;67776;52.012;4.736;2023-07-28T02:15:14;21.15;;;9.15;;
78489;SDS011;67776;52.012;4.736;2023-07-28T02:17:40;21.67;;;10.07;;
78489;SDS011;67776;52.012;4.736;2023-07-28T02:20:05;24.25;;;9.63;;
78489;SDS011;67776;52.012;4.736;2023-07-28T02:22:32;21.73;;;8.87;;
78489;SDS011;67776;52.012;4.736;2023-07-28T02:24:57;22.33;;;8.77;;
78489;SDS011;67776;52.012;4.736;2023-07-28T02:27:26;22.47;;;9.20;;
78489;SDS011;67776;52.012;4.736;2023-07-28T02:29:52;24.08;;;8.98;;
78489;SDS011;67776;52.012;4.736;2023-07-28T02:32:17;19.50;;;8.47;;
78489;SDS011;67776;52.012;4.736;2023-07-28T02:34:42;22.40;;;8.70;;
78489;SDS011;67776;52.012;4.736;2023-07-28T02:37:08;27.73;;;9.60;;
78489;SDS011;67776;52.012;4.736;2023-07-28T02:39:33;22.67;;;9.07;;
78489;SDS011;67776;52.012;4.736;2023-07-28T02:41:58;25.90;;;8.87;;
78489;SDS011;67776;52.012;4.736;2023-07-28T02:44:24;23.30;;;9.45;;
78489;SDS011;67776;52.012;4.736;2023-07-28T02:46:49;25.57;;;9.70;;
78489;SDS011;67776;52.012;4.736;2023-07-28T02:49:14;19.23;;;9.23;;
78489;SDS011;67776;52.012;4.736;2023-07-28T02:51:40;25.30;;;10.20;;
78489;SDS011;67776;52.012;4.736;2023-07-28T02:54:06;26.45;;;10.00;;
78489;SDS011;67776;52.012;4.736;2023-07-28T02:56:32;31.80;;;10.00;;
78489;SDS011;67776;52.012;4.736;2023-07-28T02:59:02;28.02;;;10.18;;
78489;SDS011;67776;52.012;4.736;2023-07-28T03:01:29;24.57;;;10.10;;
78489;SDS011;67776;52.012;4.736;2023-07-28T03:03:57;28.98;;;10.65;;
78489;SDS011;67776;52.012;4.736;2023-07-28T03:06:23;32.57;;;11.57;;
78489;SDS011;67776;52.012;4.736;2023-07-28T03:08:48;32.70;;;12.00;;
78489;SDS011;67776;52.012;4.736;2023-07-28T03:11:14;26.57;;;11.47;;
78489;SDS011;67776;52.012;4.736;2023-07-28T03:13:39;30.17;;;12.23;;
78489;SDS011;67776;52.012;4.736;2023-07-28T03:16:04;30.13;;;11.47;;
78489;SDS011;67776;52.012;4.736;2023-07-28T03:18:30;31.20;;;11.87;;
78489;SDS011;67776;52.012;4.736;2023-07-28T03:20:55;39.67;;;12.20;;
78489;SDS011;67776;52.012;4.736;2023-07-28T03:23:20;34.63;;;12.87;;
78489;SDS011;67776;52.012;4.736;2023-07-28T03:25:45;27.00;;;11.57;;
78489;SDS011;67776;52.012;4.736;2023-07-28T03:28:11;29.77;;;11.80;;
78489;SDS011;67776;52.012;4.736;2023-07-28T03:30:36;33.80;;;11.80;;
78489;SDS011;67776;52.012;4.736;2023-07-28T03:33:01;29.47;;;11.37;;
78489;SDS011;67776;52.012;4.736;2023-07-28T03:35:27;28.48;;;11.70;;
78489;SDS011;67776;52.012;4.736;2023-07-28T03:37:52;32.43;;;12.13;;
78489;SDS011;67776;52.012;4.736;2023-07-28T03:40:18;28.47;;;11.90;;
78489;SDS011;67776;52.012;4.736;2023-07-28T03:42:43;26.47;;;10.87;;
78489;SDS011;67776;52.012;4.736;2023-07-28T03:45:08;27.37;;;11.53;;
78489;SDS011;67776;52.012;4.736;2023-07-28T03:47:34;29.48;;;11.40;;
78489;SDS011;67776;52.012;4.736;2023-07-28T03:50:00;26.60;;;11.50;;
78489;SDS011;67776;52.012;4.736;2023-07-28T03:52:25;32.17;;;12.07;;
78489;SDS011;67776;52.012;4.736;2023-07-28T03:54:50;30.93;;;11.27;;
78489;SDS011;67776;52.012;4.736;2023-07-28T03:57:16;28.77;;;11.93;;
78489;SDS011;67776;52.012;4.736;2023-07-28T03:59:41;31.07;;;11.60;;
78489;SDS011;67776;52.012;4.736;2023-07-28T04:02:06;29.33;;;12.17;;
78489;SDS011;67776;52.012;4.736;2023-07-28T04:04:32;30.27;;;11.90;;
78489;SDS011;67776;52.012;4.736;2023-07-28T04:06:57;28.80;;;11.40;;
78489;SDS011;67776;52.012;4.736;2023-07-28T04:09:23;28.90;;;11.52;;
78489;SDS011;67776;52.012;4.736;2023-07-28T04:11:48;31.37;;;10.87;;
78489;SDS011;67776;52.012;4.736;2023-07-28T04:14:13;32.93;;;12.70;;
78489;SDS011;67776;52.012;4.736;2023-07-28T04:16:39;32.43;;;12.00;;
78489;SDS011;67776;52.012;4.736;2023-07-28T04:19:05;31.15;;;11.90;;
78489;SDS011;67776;52.012;4.736;2023-07-28T04:21:30;33.10;;;11.33;;
78489;SDS011;67776;52.012;4.736;2023-07-28T04:23:56;31.70;;;11.55;;
78489;SDS011;67776;52.012;4.736;2023-07-28T04:26:21;33.57;;;12.60;;
78489;SDS011;67776;52.012;4.736;2023-07-28T04:28:48;34.00;;;12.27;;
78489;SDS011;67776;52.012;4.736;2023-07-28T04:31:13;27.23;;;11.45;;
78489;SDS011;67776;52.012;4.736;2023-07-28T04:33:42;31.63;;;12.30;;
78489;SDS011;67776;52.012;4.736;2023-07-28T04:36:08;28.10;;;12.32;;
78489;SDS011;67776;52.012;4.736;2023-07-28T04:38:33;26.50;;;11.93;;
78489;SDS011;67776;52.012;4.736;2023-07-28T04:40:58;27.80;;;11.10;;
78489;SDS011;67776;52.012;4.736;2023-07-28T04:43:24;22.10;;;10.93;;
78489;SDS011;67776;52.012;4.736;2023-07-28T04:45:49;27.15;;;11.18;;
78489;SDS011;67776;52.012;4.736;2023-07-28T04:48:15;31.53;;;12.00;;
78489;SDS011;67776;52.012;4.736;2023-07-28T04:50:40;26.87;;;11.07;;
78489;SDS011;67776;52.012;4.736;2023-07-28T04:53:05;25.20;;;10.93;;
78489;SDS011;67776;52.012;4.736;2023-07-28T04:55:31;31.97;;;11.90;;
78489;SDS011;67776;52.012;4.736;2023-07-28T04:57:56;24.10;;;10.90;;
78489;SDS011;67776;52.012;4.736;2023-07-28T05:00:21;24.88;;;10.38;;
78489;SDS011;67776;52.012;4.736;2023-07-28T05:02:48;27.93;;;10.27;;
78489;SDS011;67776;52.012;4.736;2023-07-28T05:05:13;30.75;;;10.38;;
78489;SDS011;67776;52.012;4.736;2023-07-28T05:07:39;27.80;;;10.60;;
78489;SDS011;67776;52.012;4.736;2023-07-28T05:10:04;25.50;;;10.18;;
78489;SDS011;67776;52.012;4.736;2023-07-28T05:12:30;22.10;;;9.60;;
78489;SDS011;67776;52.012;4.736;2023-07-28T05:14:55;27.17;;;9.77;;
78489;SDS011;67776;52.012;4.736;2023-07-28T05:17:21;27.50;;;9.87;;
78489;SDS011;67776;52.012;4.736;2023-07-28T05:19:46;28.60;;;10.40;;
78489;SDS011;67776;52.012;4.736;2023-07-28T05:22:11;25.97;;;10.27;;
78489;SDS011;67776;52.012;4.736;2023-07-28T05:24:37;33.23;;;11.40;;
78489;SDS011;67776;52.012;4.736;2023-07-28T05:27:02;24.40;;;9.83;;
78489;SDS011;67776;52.012;4.736;2023-07-28T05:29:27;21.90;;;9.90;;
78489;SDS011;67776;52.012;4.736;2023-07-28T05:31:53;28.67;;;10.70;;
78489;SDS011;67776;52.012;4.736;2023-07-28T05:34:18;23.83;;;10.50;;
78489;SDS011;67776;52.012;4.736;2023-07-28T05:36:44;21.20;;;9.90;;
78489;SDS011;67776;52.012;4.736;2023-07-28T05:39:09;23.33;;;10.53;;
78489;SDS011;67776;52.012;4.736;2023-07-28T05:41:36;25.70;;;9.90;;
78489;SDS011;67776;52.012;4.736;2023-07-28T05:44:02;29.17;;;10.75;;
78489;SDS011;67776;52.012;4.736;2023-07-28T05:46:28;22.67;;;10.03;;
78489;SDS011;67776;52.012;4.736;2023-07-28T05:48:54;27.47;;;10.23;;
78489;SDS011;67776;52.012;4.736;2023-07-28T05:51:20;23.25;;;10.10;;
78489;SDS011;67776;52.012;4.736;2023-07-28T05:53:46;21.65;;;9.77;;
78489;SDS011;67776;52.012;4.736;2023-07-28T05:56:12;25.43;;;9.60;;
78489;SDS011;67776;52.012;4.736;2023-07-28T05:58:37;20.25;;;9.55;;
78489;SDS011;67776;52.012;4.736;2023-07-28T06:01:03;23.20;;;9.27;;
78489;SDS011;67776;52.012;4.736;2023-07-28T06:03:28;21.30;;;9.63;;
78489;SDS011;67776;52.012;4.736;2023-07-28T06:05:54;24.20;;;9.15;;
78489;SDS011;67776;52.012;4.736;2023-07-28T06:08:19;26.87;;;10.20;;
78489;SDS011;67776;52.012;4.736;2023-07-28T06:10:45;22.50;;;10.50;;
78489;SDS011;67776;52.012;4.736;2023-07-28T06:13:10;23.67;;;9.93;;
78489;SDS011;67776;52.012;4.736;2023-07-28T06:15:38;20.33;;;8.80;;
78489;SDS011;67776;52.012;4.736;2023-07-28T06:18:04;25.67;;;10.55;;
78489;SDS011;67776;52.012;4.736;2023-07-28T06:20:29;29.77;;;11.67;;
78489;SDS011;67776;52.012;4.736;2023-07-28T06:22:55;21.85;;;10.95;;
78489;SDS011;67776;52.012;4.736;2023-07-28T06:25:20;28.57;;;11.47;;
78489;SDS011;67776;52.012;4.736;2023-07-28T06:27:46;22.07;;;10.03;;
78489;SDS011;67776;52.012;4.736;2023-07-28T06:30:11;26.80;;;11.73;;
78489;SDS011;67776;52.012;4.736;2023-07-28T06:32:37;20.73;;;11.00;;
78489;SDS011;67776;52.012;4.736;2023-07-28T06:35:02;21.60;;;11.20;;
78489;SDS011;67776;52.012;4.736;2023-07-28T06:37:28;19.92;;;10.82;;
78489;SDS011;67776;52.012;4.736;2023-07-28T06:39:53;17.63;;;10.00;;
78489;SDS011;67776;52.012;4.736;2023-07-28T06:42:20;21.77;;;10.70;;
78489;SDS011;67776;52.012;4.736;2023-07-28T06:44:49;21.42;;;10.23;;
78489;SDS011;67776;52.012;4.736;2023-07-28T06:47:18;17.23;;;8.40;;
78489;SDS011;67776;52.012;4.736;2023-07-28T06:49:44;15.35;;;8.60;;
78489;SDS011;67776;52.012;4.736;2023-07-28T06:52:09;14.33;;;8.23;;
78489;SDS011;67776;52.012;4.736;2023-07-28T06:54:34;14.20;;;8.40;;
78489;SDS011;67776;52.012;4.736;2023-07-28T06:57:00;15.47;;;7.87;;
78489;SDS011;67776;52.012;4.736;2023-07-28T06:59:25;14.37;;;8.07;;
78489;SDS011;67776;52.012;4.736;2023-07-28T07:01:51;13.00;;;7.33;;
78489;SDS011;67776;52.012;4.736;2023-07-28T07:04:16;16.98;;;7.45;;
78489;SDS011;67776;52.012;4.736;2023-07-28T07:06:42;18.60;;;7.67;;
78489;SDS011;67776;52.012;4.736;2023-07-28T07:09:07;15.40;;;7.87;;
78489;SDS011;67776;52.012;4.736;2023-07-28T07:11:33;15.07;;;6.90;;
78489;SDS011;67776;52.012;4.736;2023-07-28T07:13:58;14.13;;;7.50;;
78489;SDS011;67776;52.012;4.736;2023-07-28T07:16:24;15.10;;;7.97;;
78489;SDS011;67776;52.012;4.736;2023-07-28T07:18:50;12.90;;;7.13;;
78489;SDS011;67776;52.012;4.736;2023-07-28T07:21:16;13.27;;;7.60;;
78489;SDS011;67776;52.012;4.736;2023-07-28T07:23:41;17.92;;;8.25;;
78489;SDS011;67776;52.012;4.736;2023-07-28T07:26:07;15.27;;;7.70;;
78489;SDS011;67776;52.012;4.736;2023-07-28T07:28:32;15.30;;;7.20;;
78489;SDS011;67776;52.012;4.736;2023-07-28T07:30:59;12.95;;;7.28;;
78489;SDS011;67776;52.012;4.736;2023-07-28T07:33:25;15.77;;;7.43;;
78489;SDS011;67776;52.012;4.736;2023-07-28T07:35:50;14.13;;;8.00;;
78489;SDS011;67776;52.012;4.736;2023-07-28T07:38:15;16.13;;;7.80;;
78489;SDS011;67776;52.012;4.736;2023-07-28T07:40:41;14.60;;;7.37;;
78489;SDS011;67776;52.012;4.736;2023-07-28T07:43:07;15.60;;;8.13;;
78489;SDS011;67776;52.012;4.736;2023-07-28T07:45:32;13.50;;;7.83;;
78489;SDS011;67776;52.012;4.736;2023-07-28T07:47:58;14.73;;;8.03;;
78489;SDS011;67776;52.012;4.736;2023-07-28T07:50:24;17.73;;;7.73;;
78489;SDS011;67776;52.012;4.736;2023-07-28T07:52:49;17.63;;;8.43;;
78489;SDS011;67776;52.012;4.736;2023-07-28T07:55:15;13.50;;;7.47;;
78489;SDS011;67776;52.012;4.736;2023-07-28T07:57:41;18.98;;;8.50;;
78489;SDS011;67776;52.012;4.736;2023-07-28T08:00:07;15.20;;;8.00;;
78489;SDS011;67776;52.012;4.736;2023-07-28T08:02:33;16.13;;;7.95;;
78489;SDS011;67776;52.012;4.736;2023-07-28T08:04:59;15.90;;;7.30;;
78489;SDS011;67776;52.012;4.736;2023-07-28T08:07:25;13.53;;;7.30;;
78489;SDS011;67776;52.012;4.736;2023-07-28T08:09:51;17.77;;;8.27;;
78489;SDS011;67776;52.012;4.736;2023-07-28T08:12:16;15.07;;;7.50;;
78489;SDS011;67776;52.012;4.736;2023-07-28T08:14:42;12.73;;;7.40;;
78489;SDS011;67776;52.012;4.736;2023-07-28T08:17:10;13.07;;;7.20;;
78489;SDS011;67776;52.012;4.736;2023-07-28T08:19:36;12.82;;;6.22;;
78489;SDS011;67776;52.012;4.736;2023-07-28T08:22:01;14.13;;;5.80;;
78489;SDS011;67776;52.012;4.736;2023-07-28T08:24:28;12.57;;;5.82;;
78489;SDS011;67776;52.012;4.736;2023-07-28T08:26:54;12.80;;;6.20;;
78489;SDS011;67776;52.012;4.736;2023-07-28T08:29:19;12.10;;;5.50;;
78489;SDS011;67776;52.012;4.736;2023-07-28T08:31:45;13.33;;;5.80;;
78489;SDS011;67776;52.012;4.736;2023-07-28T08:34:10;12.87;;;6.03;;
78489;SDS011;67776;52.012;4.736;2023-07-28T08:36:35;11.87;;;6.63;;
78489;SDS011;67776;52.012;4.736;2023-07-28T08:39:01;14.73;;;6.72;;
78489;SDS011;67776;52.012;4.736;2023-07-28T08:41:26;13.63;;;6.53;;
78489;SDS011;67776;52.012;4.736;2023-07-28T08:43:52;14.33;;;6.43;;
78489;SDS011;67776;52.012;4.736;2023-07-28T08:46:18;12.00;;;6.68;;
78489;SDS011;67776;52.012;4.736;2023-07-28T08:48:45;13.48;;;5.90;;
78489;SDS011;67776;52.012;4.736;2023-07-28T08:51:10;12.60;;;6.27;;
78489;SDS011;67776;52.012;4.736;2023-07-28T08:53:37;13.23;;;6.32;;
78489;SDS011;67776;52.012;4.736;2023-07-28T08:56:03;11.30;;;6.15;;
78489;SDS011;67776;52.012;4.736;2023-07-28T08:58:29;12.77;;;5.82;;
78489;SDS011;67776;52.012;4.736;2023-07-28T09:00:55;9.37;;;5.00;;
78489;SDS011;67776;52.012;4.736;2023-07-28T09:03:20;11.88;;;5.60;;
78489;SDS011;67776;52.012;4.736;2023-07-28T09:05:47;12.95;;;6.15;;
78489;SDS011;67776;52.012;4.736;2023-07-28T09:08:13;13.27;;;6.33;;
78489;SDS011;67776;52.012;4.736;2023-07-28T09:10:40;10.93;;;6.22;;
78489;SDS011;67776;52.012;4.736;2023-07-28T09:13:08;12.32;;;6.00;;
78489;SDS011;67776;52.012;4.736;2023-07-28T09:15:35;9.90;;;5.70;;
78489;SDS011;67776;52.012;4.736;2023-07-28T09:18:00;10.68;;;5.75;;
78489;SDS011;67776;52.012;4.736;2023-07-28T09:20:26;11.90;;;5.83;;
78489;SDS011;67776;52.012;4.736;2023-07-28T09:23:00;10.13;;;6.15;;
78489;SDS011;67776;52.012;4.736;2023-07-28T09:25:25;12.93;;;6.67;;
78489;SDS011;67776;52.012;4.736;2023-07-28T09:27:54;11.85;;;6.32;;
78489;SDS011;67776;52.012;4.736;2023-07-28T09:30:19;11.30;;;6.13;;
78489;SDS011;67776;52.012;4.736;2023-07-28T09:32:50;11.82;;;6.28;;
78489;SDS011;67776;52.012;4.736;2023-07-28T09:35:18;13.52;;;6.60;;
78489;SDS011;67776;52.012;4.736;2023-07-28T09:37:45;11.55;;;6.10;;
78489;SDS011;67776;52.012;4.736;2023-07-28T09:40:13;12.55;;;6.13;;
78489;SDS011;67776;52.012;4.736;2023-07-28T09:45:15;9.32;;;5.90;;
78489;SDS011;67776;52.012;4.736;2023-07-28T09:47:42;11.10;;;6.07;;
78489;SDS011;67776;52.012;4.736;2023-07-28T09:50:10;10.90;;;6.00;;
78489;SDS011;67776;52.012;4.736;2023-07-28T09:52:39;10.77;;;5.35;;
78489;SDS011;67776;52.012;4.736;2023-07-28T09:55:08;11.63;;;6.20;;
78489;SDS011;67776;52.012;4.736;2023-07-28T09:57:39;9.75;;;5.68;;
78489;SDS011;67776;52.012;4.736;2023-07-28T10:00:10;8.70;;;5.57;;
78489;SDS011;67776;52.012;4.736;2023-07-28T10:02:38;12.40;;;6.15;;
78489;SDS011;67776;52.012;4.736;2023-07-28T10:05:05;10.75;;;5.70;;
78489;SDS011;67776;52.012;4.736;2023-07-28T10:07:32;9.53;;;5.63;;
78489;SDS011;67776;52.012;4.736;2023-07-28T10:09:59;9.65;;;6.22;;
78489;SDS011;67776;52.012;4.736;2023-07-28T10:12:25;9.88;;;6.05;;
78489;SDS011;67776;52.012;4.736;2023-07-28T10:15:02;10.98;;;6.20;;
78489;SDS011;67776;52.012;4.736;2023-07-28T10:17:31;11.20;;;6.35;;
78489;SDS011;67776;52.012;4.736;2023-07-28T10:19:59;12.83;;;6.73;;
78489;SDS011;67776;52.012;4.736;2023-07-28T10:22:27;12.25;;;7.03;;
78489;SDS011;67776;52.012;4.736;2023-07-28T10:24:53;14.57;;;7.43;;
78489;SDS011;67776;52.012;4.736;2023-07-28T10:29:56;13.15;;;6.95;;
78489;SDS011;67776;52.012;4.736;2023-07-28T10:32:27;13.82;;;7.10;;
78489;SDS011;67776;52.012;4.736;2023-07-28T10:37:36;12.70;;;7.10;;
78489;SDS011;67776;52.012;4.736;2023-07-28T10:40:44;13.80;;;7.15;;
78489;SDS011;67776;52.012;4.736;2023-07-28T10:43:00;14.05;;;7.05;;
78489;SDS011;67776;52.012;4.736;2023-07-28T10:45:28;13.77;;;6.43;;
78489;SDS011;67776;52.012;4.736;2023-07-28T10:47:55;13.73;;;7.15;;
78489;SDS011;67776;52.012;4.736;2023-07-28T10:50:26;12.07;;;6.68;;
78489;SDS011;67776;52.012;4.736;2023-07-28T10:52:53;11.93;;;6.50;;
78489;SDS011;67776;52.012;4.736;2023-07-28T10:55:22;13.50;;;6.33;;
78489;SDS011;67776;52.012;4.736;2023-07-28T10:57:50;14.30;;;6.38;;
78489;SDS011;67776;52.012;4.736;2023-07-28T11:00:17;12.05;;;4.97;;
78489;SDS011;67776;52.012;4.736;2023-07-28T11:05:11;11.95;;;5.28;;
78489;SDS011;67776;52.012;4.736;2023-07-28T11:07:47;9.18;;;5.10;;
78489;SDS011;67776;52.012;4.736;2023-07-28T11:10:13;11.93;;;5.82;;
78489;SDS011;67776;52.012;4.736;2023-07-28T11:12:41;10.67;;;4.97;;
78489;SDS011;67776;52.012;4.736;2023-07-28T11:15:08;11.38;;;4.93;;
78489;SDS011;67776;52.012;4.736;2023-07-28T11:17:36;9.10;;;5.00;;
78489;SDS011;67776;52.012;4.736;2023-07-28T11:22:43;8.70;;;4.47;;
78489;SDS011;67776;52.012;4.736;2023-07-28T11:25:09;9.75;;;4.85;;
78489;SDS011;67776;52.012;4.736;2023-07-28T11:27:35;9.53;;;4.50;;
78489;SDS011;67776;52.012;4.736;2023-07-28T11:30:02;12.03;;;4.73;;
78489;SDS011;67776;52.012;4.736;2023-07-28T11:32:31;9.15;;;4.80;;
78489;SDS011;67776;52.012;4.736;2023-07-28T11:35:05;7.93;;;4.30;;
78489;SDS011;67776;52.012;4.736;2023-07-28T11:37:33;9.80;;;4.45;;
78489;SDS011;67776;52.012;4.736;2023-07-28T11:40:00;6.90;;;3.63;;
78489;SDS011;67776;52.012;4.736;2023-07-28T11:42:28;11.40;;;3.90;;
78489;SDS011;67776;52.012;4.736;2023-07-28T11:44:54;7.80;;;3.90;;
78489;SDS011;67776;52.012;4.736;2023-07-28T11:47:20;11.98;;;4.30;;
78489;SDS011;67776;52.012;4.736;2023-07-28T11:49:49;7.93;;;3.97;;
78489;SDS011;67776;52.012;4.736;2023-07-28T11:52:16;6.97;;;3.92;;
78489;SDS011;67776;52.012;4.736;2023-07-28T11:54:41;9.43;;;4.10;;
78489;SDS011;67776;52.012;4.736;2023-07-28T11:57:09;8.05;;;3.80;;
78489;SDS011;67776;52.012;4.736;2023-07-28T11:59:34;8.20;;;3.93;;
78489;SDS011;67776;52.012;4.736;2023-07-28T12:02:01;8.63;;;3.95;;
78489;SDS011;67776;52.012;4.736;2023-07-28T12:04:31;7.85;;;4.53;;
78489;SDS011;67776;52.012;4.736;2023-07-28T12:12:11;9.98;;;4.30;;
78489;SDS011;67776;52.012;4.736;2023-07-28T12:14:36;10.07;;;4.47;;
78489;SDS011;67776;52.012;4.736;2023-07-28T12:17:03;8.32;;;3.90;;
78489;SDS011;67776;52.012;4.736;2023-07-28T12:19:28;9.40;;;4.35;;
78489;SDS011;67776;52.012;4.736;2023-07-28T12:21:54;8.97;;;4.50;;
78489;SDS011;67776;52.012;4.736;2023-07-28T12:24:19;8.50;;;4.10;;
78489;SDS011;67776;52.012;4.736;2023-07-28T12:26:45;9.80;;;4.57;;
78489;SDS011;67776;52.012;4.736;2023-07-28T12:29:11;8.57;;;4.28;;
78489;SDS011;67776;52.012;4.736;2023-07-28T12:31:36;10.33;;;4.73;;
78489;SDS011;67776;52.012;4.736;2023-07-28T12:34:02;9.95;;;5.00;;
78489;SDS011;67776;52.012;4.736;2023-07-28T12:36:27;9.73;;;5.17;;
78489;SDS011;67776;52.012;4.736;2023-07-28T12:38:53;9.93;;;5.70;;
78489;SDS011;67776;52.012;4.736;2023-07-28T12:41:18;12.07;;;6.17;;
78489;SDS011;67776;52.012;4.736;2023-07-28T12:43:43;11.80;;;6.23;;
78489;SDS011;67776;52.012;4.736;2023-07-28T12:46:09;13.23;;;6.17;;
78489;SDS011;67776;52.012;4.736;2023-07-28T12:48:34;12.17;;;6.27;;
78489;SDS011;67776;52.012;4.736;2023-07-28T12:51:00;11.30;;;6.70;;
78489;SDS011;67776;52.012;4.736;2023-07-28T12:53:25;9.10;;;5.57;;
78489;SDS011;67776;52.012;4.736;2023-07-28T12:55:51;11.33;;;5.83;;
78489;SDS011;67776;52.012;4.736;2023-07-28T12:58:16;9.90;;;5.37;;
78489;SDS011;67776;52.012;4.736;2023-07-28T13:00:41;8.73;;;5.60;;
78489;SDS011;67776;52.012;4.736;2023-07-28T13:03:07;9.97;;;5.77;;
78489;SDS011;67776;52.012;4.736;2023-07-28T13:05:32;10.07;;;5.97;;
78489;SDS011;67776;52.012;4.736;2023-07-28T13:07:57;12.93;;;5.07;;
78489;SDS011;67776;52.012;4.736;2023-07-28T13:10:23;10.60;;;6.53;;
78489;SDS011;67776;52.012;4.736;2023-07-28T13:12:48;14.50;;;6.77;;
78489;SDS011;67776;52.012;4.736;2023-07-28T13:15:13;11.27;;;7.33;;
78489;SDS011;67776;52.012;4.736;2023-07-28T13:17:39;13.10;;;7.83;;
78489;SDS011;67776;52.012;4.736;2023-07-28T13:20:04;13.17;;;8.07;;
78489;SDS011;67776;52.012;4.736;2023-07-28T13:22:31;13.77;;;7.38;;
78489;SDS011;67776;52.012;4.736;2023-07-28T13:24:57;14.17;;;8.03;;
78489;SDS011;67776;52.012;4.736;2023-07-28T13:27:22;15.27;;;7.72;;
78489;SDS011;67776;52.012;4.736;2023-07-28T13:29:48;14.77;;;8.17;;
78489;SDS011;67776;52.012;4.736;2023-07-28T13:32:31;15.90;;;8.70;;
78489;SDS011;67776;52.012;4.736;2023-07-28T13:34:56;12.48;;;7.45;;
78489;SDS011;67776;52.012;4.736;2023-07-28T13:37:22;13.77;;;8.20;;
78489;SDS011;67776;52.012;4.736;2023-07-28T13:39:47;14.43;;;8.23;;
78489;SDS011;67776;52.012;4.736;2023-07-28T13:42:13;14.27;;;8.37;;
78489;SDS011;67776;52.012;4.736;2023-07-28T13:44:40;11.43;;;7.50;;
78489;SDS011;67776;52.012;4.736;2023-07-28T13:47:06;12.48;;;6.97;;
78489;SDS011;67776;52.012;4.736;2023-07-28T13:49:31;12.97;;;7.27;;
78489;SDS011;67776;52.012;4.736;2023-07-28T13:52:00;12.88;;;7.63;;
78489;SDS011;67776;52.012;4.736;2023-07-28T13:54:26;11.43;;;7.13;;
78489;SDS011;67776;52.012;4.736;2023-07-28T13:56:51;19.43;;;7.53;;
78489;SDS011;67776;52.012;4.736;2023-07-28T13:59:17;12.53;;;7.20;;
78489;SDS011;67776;52.012;4.736;2023-07-28T14:01:42;12.93;;;8.00;;
78489;SDS011;67776;52.012;4.736;2023-07-28T14:04:07;17.20;;;10.10;;
78489;SDS011;67776;52.012;4.736;2023-07-28T14:06:33;15.55;;;8.80;;
78489;SDS011;67776;52.012;4.736;2023-07-28T14:08:58;17.80;;;8.60;;
78489;SDS011;67776;52.012;4.736;2023-07-28T14:11:24;15.30;;;8.40;;
78489;SDS011;67776;52.012;4.736;2023-07-28T14:13:49;16.83;;;8.93;;
78489;SDS011;67776;52.012;4.736;2023-07-28T14:16:14;14.70;;;8.67;;
78489;SDS011;67776;52.012;4.736;2023-07-28T14:18:40;14.03;;;8.40;;
78489;SDS011;67776;52.012;4.736;2023-07-28T14:21:05;15.38;;;9.13;;
78489;SDS011;67776;52.012;4.736;2023-07-28T14:23:31;18.13;;;9.47;;
78489;SDS011;67776;52.012;4.736;2023-07-28T14:25:56;16.07;;;9.07;;
78489;SDS011;67776;52.012;4.736;2023-07-28T14:28:22;16.33;;;9.32;;
78489;SDS011;67776;52.012;4.736;2023-07-28T14:30:50;15.70;;;8.80;;
78489;SDS011;67776;52.012;4.736;2023-07-28T14:33:16;15.53;;;8.00;;
78489;SDS011;67776;52.012;4.736;2023-07-28T14:35:46;14.88;;;7.50;;
78489;SDS011;67776;52.012;4.736;2023-07-28T14:38:13;15.00;;;7.95;;
78489;SDS011;67776;52.012;4.736;2023-07-28T14:40:38;15.63;;;8.17;;
78489;SDS011;67776;52.012;4.736;2023-07-28T14:43:05;16.23;;;7.60;;
78489;SDS011;67776;52.012;4.736;2023-07-28T14:45:31;15.38;;;8.40;;
78489;SDS011;67776;52.012;4.736;2023-07-28T14:47:56;15.60;;;7.37;;